Time;durP1;ratioP1;P1;durP2;ratioP2;P2;SDS_P1;SDS_P2;PMS_P1;PMS_P2;Temp;Humidity;BMP_temperature;BMP_pressure;BME280_temperature;BME280_humidity;BME280_pressure;Samples;Min_cycle;Max_cycle;Signal;HPM_P1;HPM_P2
2024/01/23 00:02:02;;;;;;;170.90;110.63;;;2.10;94.30;;;;;;5053466;28;20024;-62
2024/01/23 00:04:28;;;;;;;146.75;95.53;;;2.10;94.70;;;;;;5052950;28;20040;-63
2024/01/23 00:06:54;;;;;;;184.52;116.18;;;2.10;94.40;;;;;;5053218;28;20033;-65
2024/01/23 00:09:19;;;;;;;147.20;98.47;;;2.10;94.20;;;;;;5053178;28;20108;-64
2024/01/23 00:11:45;;;;;;;168.70;111.68;;;2.10;94.90;;;;;;5053237;28;20025;-63
2024/01/23 00:14:11;;;;;;;153.27;100.85;;;2.10;95.10;;;;;;5053162;28;20428;-63
2024/01/23 00:16:37;;;;;;;232.77;148.00;;;2.10;95.10;;;;;;5053010;28;20059;-62
2024/01/23 00:19:02;;;;;;;194.27;121.40;;;2.20;95.90;;;;;;5052995;28;20025;-67
2024/01/23 00:21:29;;;;;;;155.50;104.57;;;2.10;95.40;;;;;;5053179;28;20471;-66
2024/01/23 00:23:55;;;;;;;171.35;109.07;;;2.10;95.50;;;;;;5053069;28;20380;-67
2024/01/23 00:26:21;;;;;;;147.27;98.05;;;2.10;95.30;;;;;;5053110;28;20033;-63
2024/01/23 00:28:47;;;;;;;153.38;98.43;;;2.10;94.50;;;;;;5053108;28;20167;-65
2024/01/23 00:31:12;;;;;;;129.60;86.15;;;2.20;94.50;;;;;;5052906;28;20017;-65
2024/01/23 00:33:38;;;;;;;128.00;83.78;;;2.20;94.40;;;;;;5052955;28;20055;-64
2024/01/23 00:36:05;;;;;;;132.82;84.57;;;2.20;94.10;;;;;;5052871;28;20021;-65
2024/01/23 00:38:31;;;;;;;115.63;77.65;;;2.30;93.90;;;;;;5055445;28;20416;-63
2024/01/23 00:40:56;;;;;;;131.90;80.35;;;2.30;94.00;;;;;;5057115;28;20159;-64
2024/01/23 00:43:22;;;;;;;134.88;84.65;;;2.30;93.40;;;;;;5056949;28;20021;-64
2024/01/23 00:45:48;;;;;;;144.02;92.57;;;2.40;93.30;;;;;;5056872;28;20025;-62
2024/01/23 00:48:13;;;;;;;132.63;84.05;;;2.30;93.50;;;;;;5056774;28;20048;-65
2024/01/23 00:50:40;;;;;;;115.53;75.20;;;2.20;94.10;;;;;;5056846;28;20074;-65
2024/01/23 00:53:05;;;;;;;117.00;76.57;;;2.30;94.10;;;;;;5056865;28;20025;-67
2024/01/23 00:55:31;;;;;;;108.13;70.57;;;2.30;93.40;;;;;;5056668;28;20052;-66
2024/01/23 00:57:57;;;;;;;112.70;72.07;;;2.30;93.50;;;;;;5056708;28;20048;-64
2024/01/23 01:00:22;;;;;;;110.63;69.15;;;2.40;93.30;;;;;;5056812;28;20024;-65
2024/01/23 01:02:48;;;;;;;100.63;69.13;;;2.30;93.00;;;;;;5056407;28;20075;-63
2024/01/23 01:05:14;;;;;;;112.53;73.32;;;2.40;92.60;;;;;;5056845;28;20068;-65
2024/01/23 01:07:40;;;;;;;129.75;85.65;;;2.30;92.60;;;;;;5056477;28;20025;-63
2024/01/23 01:10:06;;;;;;;99.35;63.05;;;2.20;92.90;;;;;;5056448;28;20029;-66
2024/01/23 01:12:33;;;;;;;91.70;62.78;;;2.20;92.80;;;;;;5056481;28;20025;-65
2024/01/23 01:15:00;;;;;;;84.32;55.35;;;2.20;93.00;;;;;;5056312;28;20029;-62
2024/01/23 01:17:26;;;;;;;88.15;57.97;;;2.20;93.00;;;;;;5056116;28;20394;-65
2024/01/23 01:19:53;;;;;;;107.28;73.15;;;2.30;92.80;;;;;;5056493;28;20421;-65
2024/01/23 01:22:18;;;;;;;93.45;62.78;;;2.20;93.30;;;;;;5056560;28;20014;-65
2024/01/23 01:24:44;;;;;;;70.82;49.60;;;2.00;93.90;;;;;;5056172;28;20021;-65
2024/01/23 01:27:10;;;;;;;71.43;49.70;;;1.90;94.50;;;;;;5056123;28;20021;-65
2024/01/23 01:29:35;;;;;;;66.85;45.65;;;2.00;94.30;;;;;;5056168;28;20475;-63
2024/01/23 01:32:01;;;;;;;61.35;43.35;;;2.10;94.20;;;;;;5056006;28;20497;-62
2024/01/23 01:34:28;;;;;;;81.00;51.75;;;2.10;94.20;;;;;;5054671;28;20028;-65
2024/01/23 01:36:53;;;;;;;91.78;60.83;;;2.10;94.40;;;;;;5055997;28;20025;-62
2024/01/23 01:39:19;;;;;;;76.05;50.55;;;2.00;95.20;;;;;;5055974;28;20028;-64
2024/01/23 01:41:51;;;;;;;84.45;54.88;;;2.00;95.40;;;;;;5055747;28;20056;-67
2024/01/23 01:44:17;;;;;;;69.78;46.67;;;2.10;94.90;;;;;;5055866;28;20021;-65
2024/01/23 01:46:43;;;;;;;62.75;44.53;;;2.20;94.80;;;;;;5055674;28;20430;-66
2024/01/23 01:49:11;;;;;;;59.70;40.83;;;2.20;94.30;;;;;;5054860;28;20119;-66
2024/01/23 01:51:37;;;;;;;60.85;40.75;;;2.20;94.50;;;;;;5055683;28;20017;-64
2024/01/23 01:54:04;;;;;;;49.63;35.65;;;2.30;94.40;;;;;;5055760;28;20090;-62
2024/01/23 01:56:31;;;;;;;56.08;40.80;;;2.20;93.90;;;;;;5055533;28;20025;-64
2024/01/23 01:58:57;;;;;;;64.85;45.13;;;2.20;94.20;;;;;;5055623;28;20029;-63
2024/01/23 02:01:25;;;;;;;69.38;48.30;;;2.20;94.10;;;;;;5055407;28;20051;-66
2024/01/23 02:03:51;;;;;;;66.35;44.47;;;2.00;94.50;;;;;;5053965;28;20049;-64
2024/01/23 02:06:17;;;;;;;85.80;53.72;;;2.00;95.40;;;;;;5055458;28;20025;-65
2024/01/23 02:08:43;;;;;;;71.32;48.05;;;2.00;95.80;;;;;;5055483;28;20013;-66
2024/01/23 02:11:09;;;;;;;60.85;42.65;;;2.10;95.70;;;;;;5055251;28;20039;-65
2024/01/23 02:13:35;;;;;;;65.40;41.88;;;2.10;95.70;;;;;;5055297;28;20530;-66
2024/01/23 02:16:02;;;;;;;57.95;40.30;;;2.10;95.10;;;;;;5055119;28;20421;-64
2024/01/23 02:18:28;;;;;;;61.10;41.13;;;2.20;95.40;;;;;;5055158;28;20020;-66
2024/01/23 02:20:54;;;;;;;61.30;42.35;;;2.20;94.90;;;;;;5055233;28;20071;-62
2024/01/23 02:23:20;;;;;;;66.32;45.95;;;2.20;94.80;;;;;;5055101;28;20025;-64
2024/01/23 02:25:45;;;;;;;105.50;65.65;;;2.30;94.40;;;;;;5055057;28;20025;-62
2024/01/23 02:28:12;;;;;;;99.15;65.03;;;2.30;94.10;;;;;;5055084;28;20079;-65
2024/01/23 02:30:38;;;;;;;103.03;64.45;;;2.30;94.30;;;;;;5054771;28;20088;-63
2024/01/23 02:33:04;;;;;;;89.55;57.10;;;2.20;94.80;;;;;;5054978;28;20025;-64
2024/01/23 02:35:31;;;;;;;79.88;55.25;;;2.10;95.20;;;;;;5054777;28;20017;-66
2024/01/23 02:37:58;;;;;;;79.72;52.05;;;2.10;95.30;;;;;;5054827;28;20059;-62
2024/01/23 02:40:24;;;;;;;87.63;56.30;;;2.10;95.50;;;;;;5054818;28;20017;-62
2024/01/23 02:42:50;;;;;;;85.68;54.55;;;2.10;95.10;;;;;;5054677;28;20104;-63
2024/01/23 02:45:16;;;;;;;79.75;53.28;;;2.20;95.10;;;;;;5054518;28;20060;-62
2024/01/23 02:47:41;;;;;;;70.50;47.10;;;2.20;94.50;;;;;;5054786;28;20107;-63
2024/01/23 02:50:08;;;;;;;64.63;43.20;;;2.20;94.30;;;;;;5054568;28;20071;-62
2024/01/23 02:52:33;;;;;;;63.25;44.25;;;2.10;94.30;;;;;;5054591;28;20094;-66
2024/01/23 02:54:59;;;;;;;59.60;40.83;;;2.10;94.00;;;;;;5054480;28;20052;-64
2024/01/23 02:57:26;;;;;;;63.53;43.35;;;2.10;93.90;;;;;;5054443;28;20119;-64
2024/01/23 02:59:55;;;;;;;92.38;59.17;;;2.10;94.00;;;;;;5054296;28;20427;-65
2024/01/23 03:02:21;;;;;;;76.95;51.35;;;2.00;94.40;;;;;;5054481;28;20025;-62
2024/01/23 03:04:47;;;;;;;71.97;48.45;;;1.80;95.60;;;;;;5054070;28;20394;-62
2024/01/23 03:07:14;;;;;;;86.90;52.40;;;1.80;95.80;;;;;;5054343;28;20032;-67
2024/01/23 03:09:41;;;;;;;157.63;99.55;;;1.80;95.70;;;;;;5053063;28;20417;-64
2024/01/23 03:12:17;;;;;;;171.48;106.60;;;1.80;96.60;;;;;;5054047;28;20029;-61
2024/01/23 03:14:44;;;;;;;167.77;109.38;;;1.60;97.70;;;;;;5054028;28;20017;-63
2024/01/23 03:17:11;;;;;;;192.15;123.03;;;1.50;98.60;;;;;;5054134;28;20071;-62
2024/01/23 03:19:36;;;;;;;162.23;104.97;;;1.40;99.30;;;;;;5054005;28;20017;-66
2024/01/23 03:22:03;;;;;;;170.77;111.40;;;1.40;99.50;;;;;;5053943;28;20063;-64
2024/01/23 03:24:29;;;;;;;171.32;106.65;;;1.40;99.20;;;;;;5053879;28;20111;-65
2024/01/23 03:26:55;;;;;;;153.15;99.50;;;1.30;99.20;;;;;;5053707;28;20530;-63
2024/01/23 03:29:21;;;;;;;142.05;90.93;;;1.20;99.70;;;;;;5054005;28;20021;-64
2024/01/23 03:31:49;;;;;;;144.52;91.32;;;1.20;99.80;;;;;;5053876;28;20028;-64
2024/01/23 03:34:15;;;;;;;131.75;84.13;;;1.30;99.70;;;;;;5053804;28;20020;-67
2024/01/23 03:36:41;;;;;;;129.05;81.63;;;1.40;99.50;;;;;;5053714;28;20025;-64
2024/01/23 03:39:06;;;;;;;112.15;72.78;;;1.40;99.20;;;;;;5053833;28;20066;-63
2024/01/23 03:41:32;;;;;;;101.05;64.63;;;1.40;99.00;;;;;;5053457;28;20114;-64
2024/01/23 03:43:58;;;;;;;149.15;98.97;;;1.40;98.60;;;;;;5053737;28;20024;-65
2024/01/23 03:46:24;;;;;;;151.65;101.55;;;1.40;98.30;;;;;;5053699;28;20032;-62
2024/01/23 03:48:50;;;;;;;151.32;96.45;;;1.30;98.60;;;;;;5053548;28;20021;-65
2024/01/23 03:51:15;;;;;;;149.85;98.00;;;1.10;99.40;;;;;;5053445;28;20036;-63
2024/01/23 03:53:41;;;;;;;147.13;95.35;;;1.10;99.90;;;;;;5053491;28;20013;-64
2024/01/23 03:56:07;;;;;;;132.63;81.30;;;1.10;99.90;;;;;;5053256;28;20021;-63
2024/01/23 03:58:32;;;;;;;133.15;86.63;;;1.20;99.90;;;;;;5053337;28;20127;-62
2024/01/23 04:01:00;;;;;;;107.28;68.63;;;1.20;99.80;;;;;;5053388;28;20379;-63
2024/01/23 04:03:26;;;;;;;118.65;77.03;;;1.30;99.10;;;;;;5053098;28;20032;-65
2024/01/23 04:05:51;;;;;;;102.30;68.20;;;1.30;98.80;;;;;;5053312;28;20029;-63
2024/01/23 04:08:17;;;;;;;89.82;60.25;;;1.20;99.40;;;;;;5053438;28;20083;-61
2024/01/23 04:10:43;;;;;;;93.05;58.92;;;1.20;99.90;;;;;;5051796;28;20410;-64
2024/01/23 04:13:08;;;;;;;109.05;70.28;;;1.30;99.60;;;;;;5052684;28;20025;-62
2024/01/23 04:15:34;;;;;;;84.00;57.45;;;1.30;99.50;;;;;;5053093;28;20029;-63
2024/01/23 04:18:00;;;;;;;92.53;58.05;;;1.40;99.30;;;;;;5053270;28;20025;-64
2024/01/23 04:20:26;;;;;;;89.63;58.90;;;1.50;99.40;;;;;;5053235;28;20061;-64
2024/01/23 04:22:51;;;;;;;82.38;53.60;;;1.50;99.40;;;;;;5053038;28;20433;-66
2024/01/23 04:25:17;;;;;;;87.40;56.80;;;1.60;99.00;;;;;;5052948;28;20078;-63
2024/01/23 04:27:43;;;;;;;72.30;48.20;;;1.60;98.50;;;;;;5053061;28;20028;-65
2024/01/23 04:30:09;;;;;;;82.60;54.33;;;1.60;98.90;;;;;;5052995;28;20033;-65
2024/01/23 04:32:35;;;;;;;103.30;67.00;;;1.60;98.70;;;;;;5053413;28;20020;-61
2024/01/23 04:35:01;;;;;;;99.00;64.07;;;1.50;98.70;;;;;;5053049;28;20383;-65
2024/01/23 04:37:26;;;;;;;91.50;57.70;;;1.50;99.30;;;;;;5053007;28;20032;-65
2024/01/23 04:39:52;;;;;;;84.57;54.13;;;1.60;99.30;;;;;;5052743;28;20057;-65
2024/01/23 04:42:18;;;;;;;75.38;48.45;;;1.60;99.20;;;;;;5053048;28;20018;-64
2024/01/23 04:44:43;;;;;;;75.25;49.58;;;1.70;99.20;;;;;;5052910;28;20017;-65
2024/01/23 04:47:09;;;;;;;66.45;45.53;;;1.80;98.60;;;;;;5053039;28;20059;-65
2024/01/23 04:49:34;;;;;;;63.25;43.00;;;1.90;98.70;;;;;;5052948;28;20400;-63
2024/01/23 04:52:00;;;;;;;62.40;42.30;;;1.90;98.40;;;;;;5052912;28;20049;-64
2024/01/23 04:54:26;;;;;;;68.78;45.17;;;2.00;98.00;;;;;;5052613;28;20024;-63
2024/01/23 04:56:51;;;;;;;57.65;38.95;;;2.00;97.40;;;;;;5052905;28;20099;-66
2024/01/23 04:59:17;;;;;;;76.20;51.60;;;2.10;97.40;;;;;;5052823;28;20025;-62
2024/01/23 05:01:43;;;;;;;79.43;53.67;;;2.20;96.90;;;;;;5052714;28;20104;-65
2024/01/23 05:04:08;;;;;;;70.75;47.05;;;2.20;96.90;;;;;;5052544;28;20055;-63
2024/01/23 05:06:34;;;;;;;105.72;68.25;;;2.20;96.70;;;;;;5052804;28;20383;-64
2024/01/23 05:09:00;;;;;;;85.57;56.47;;;2.20;96.90;;;;;;5052455;28;20017;-63
2024/01/23 05:11:25;;;;;;;124.93;86.65;;;2.20;97.40;;;;;;5052676;28;20487;-64
2024/01/23 05:13:51;;;;;;;120.82;84.53;;;2.10;98.70;;;;;;5052700;28;20028;-64
2024/01/23 05:16:17;;;;;;;89.63;63.47;;;2.00;99.00;;;;;;5052574;28;20036;-63
2024/01/23 05:18:42;;;;;;;97.35;68.22;;;2.00;98.70;;;;;;5051395;28;20040;-62
2024/01/23 05:21:08;;;;;;;90.65;62.38;;;2.00;98.70;;;;;;5052672;28;20028;-64
2024/01/23 05:23:34;;;;;;;87.60;58.05;;;2.10;98.60;;;;;;5052536;28;20104;-63
2024/01/23 05:26:00;;;;;;;88.00;59.28;;;2.20;98.50;;;;;;5055494;28;20489;-65
2024/01/23 05:28:25;;;;;;;88.43;60.08;;;2.20;98.80;;;;;;5056183;28;20025;-66
2024/01/23 05:30:51;;;;;;;124.82;87.53;;;2.30;98.30;;;;;;5056157;28;20045;-65
2024/01/23 05:33:17;;;;;;;133.30;92.10;;;2.20;98.90;;;;;;5056016;28;20464;-67
2024/01/23 05:35:42;;;;;;;111.93;79.45;;;2.10;99.00;;;;;;5055969;28;20052;-66
2024/01/23 05:38:09;;;;;;;96.63;67.72;;;2.00;99.90;;;;;;5055952;28;20024;-65
2024/01/23 05:40:34;;;;;;;93.38;65.18;;;2.00;99.90;;;;;;5055956;28;20017;-64
2024/01/23 05:43:01;;;;;;;95.95;68.28;;;2.10;99.90;;;;;;5055953;28;20027;-63
2024/01/23 05:45:27;;;;;;;98.45;64.65;;;2.30;99.90;;;;;;5055941;28;20529;-61
2024/01/23 05:47:52;;;;;;;99.05;67.90;;;2.50;99.90;;;;;;5055844;28;20069;-64
2024/01/23 05:50:18;;;;;;;91.32;61.25;;;2.60;99.90;;;;;;5055849;28;20391;-65
2024/01/23 05:52:44;;;;;;;92.45;63.55;;;2.60;99.90;;;;;;5055608;28;20044;-63
2024/01/23 05:55:10;;;;;;;102.57;71.32;;;2.70;99.90;;;;;;5055673;28;20052;-65
2024/01/23 05:57:36;;;;;;;98.18;70.57;;;2.70;99.90;;;;;;5054331;28;20063;-63
2024/01/23 06:00:05;;;;;;;92.85;66.32;;;2.50;99.90;;;;;;5054255;28;20475;-66
2024/01/23 06:02:31;;;;;;;83.40;58.72;;;2.50;99.90;;;;;;5055508;28;20021;-64
2024/01/23 06:04:58;;;;;;;72.40;55.50;;;2.40;99.90;;;;;;5055088;28;20510;-63
2024/01/23 06:07:24;;;;;;;71.80;52.92;;;2.50;99.90;;;;;;5055309;28;20063;-63
2024/01/23 06:09:50;;;;;;;68.60;48.63;;;2.60;99.90;;;;;;5055357;28;20098;-63
2024/01/23 06:12:15;;;;;;;89.82;62.92;;;2.70;99.90;;;;;;5055289;28;20431;-66
2024/01/23 06:14:41;;;;;;;63.00;47.15;;;2.80;99.90;;;;;;5055101;28;20434;-65
2024/01/23 06:17:07;;;;;;;56.95;44.20;;;2.80;99.90;;;;;;5055259;28;20029;-64
2024/01/23 06:19:33;;;;;;;67.63;50.08;;;2.80;99.90;;;;;;5055112;28;20053;-66
2024/01/23 06:21:59;;;;;;;67.07;47.30;;;2.80;99.90;;;;;;5054957;28;20071;-65
2024/01/23 06:24:24;;;;;;;60.90;44.55;;;2.80;99.90;;;;;;5053865;28;20403;-65
2024/01/23 06:26:50;;;;;;;66.05;45.97;;;2.90;99.90;;;;;;5054800;28;20021;-66
2024/01/23 06:29:16;;;;;;;57.60;42.55;;;3.00;99.90;;;;;;5055117;28;20136;-63
2024/01/23 06:31:43;;;;;;;80.18;59.55;;;3.00;99.90;;;;;;5055062;28;20017;-64
2024/01/23 06:34:09;;;;;;;67.00;49.80;;;2.90;99.90;;;;;;5054935;28;20048;-64
2024/01/23 06:36:37;;;;;;;57.28;45.20;;;2.80;99.90;;;;;;5054499;28;20076;-63
2024/01/23 06:39:03;;;;;;;52.85;42.70;;;2.80;99.90;;;;;;5054941;28;20056;-66
2024/01/23 06:41:28;;;;;;;56.65;41.90;;;2.90;99.90;;;;;;5054786;28;20028;-63
2024/01/23 06:43:54;;;;;;;50.28;40.38;;;3.00;99.90;;;;;;5053527;28;20036;-63
2024/01/23 06:46:20;;;;;;;53.72;41.85;;;3.10;99.90;;;;;;5054714;28;20021;-67
2024/01/23 06:48:46;;;;;;;68.53;51.38;;;3.20;99.90;;;;;;5054623;28;20100;-64
2024/01/23 06:51:12;;;;;;;79.90;57.90;;;3.20;99.90;;;;;;5054375;28;20017;-65
2024/01/23 06:53:37;;;;;;;64.57;48.78;;;3.10;99.90;;;;;;5054611;28;20036;-66
2024/01/23 06:56:03;;;;;;;58.25;44.50;;;3.00;99.90;;;;;;5054481;28;20032;-66
2024/01/23 06:58:29;;;;;;;52.75;41.17;;;3.10;99.90;;;;;;5051576;28;20067;-65
2024/01/23 07:00:55;;;;;;;49.30;38.08;;;3.20;99.90;;;;;;5054591;28;20021;-63
2024/01/23 07:03:20;;;;;;;45.33;37.90;;;3.30;99.90;;;;;;5035817;28;20114;-67
2024/01/23 07:05:46;;;;;;;54.00;42.25;;;3.40;99.90;;;;;;5034192;28;20499;-61
2024/01/23 07:08:12;;;;;;;64.55;46.03;;;3.50;99.90;;;;;;5034528;28;20028;-65
2024/01/23 07:10:38;;;;;;;50.60;39.40;;;3.60;99.90;;;;;;5034519;28;20093;-66
2024/01/23 07:13:03;;;;;;;59.28;42.30;;;3.60;99.90;;;;;;5033064;28;20018;-64
2024/01/23 07:15:29;;;;;;;50.55;38.38;;;3.70;99.90;;;;;;5033476;28;20079;-66
2024/01/23 07:17:55;;;;;;;52.08;37.83;;;3.80;99.90;;;;;;5034369;28;20108;-68
2024/01/23 07:20:20;;;;;;;43.55;35.00;;;3.80;99.90;;;;;;5032805;28;20406;-62
2024/01/23 07:22:46;;;;;;;82.78;56.72;;;3.90;99.90;;;;;;5034180;28;20018;-62
2024/01/23 07:25:13;;;;;;;66.65;47.55;;;3.90;99.90;;;;;;5034127;28;20353;-64
2024/01/23 07:27:38;;;;;;;68.32;51.53;;;3.90;99.90;;;;;;5034109;28;20353;-66
2024/01/23 07:30:05;;;;;;;56.10;42.35;;;3.90;99.90;;;;;;5033989;28;20025;-65
2024/01/23 07:32:30;;;;;;;70.38;49.88;;;3.90;99.90;;;;;;5032754;28;20022;-63
2024/01/23 07:34:56;;;;;;;50.78;41.20;;;3.90;99.90;;;;;;5031980;28;20014;-64
2024/01/23 07:37:22;;;;;;;54.53;41.58;;;4.00;99.90;;;;;;5033349;28;20026;-63
2024/01/23 07:39:51;;;;;;;57.67;42.75;;;4.00;99.90;;;;;;5033974;28;20480;-63
2024/01/23 07:42:17;;;;;;;53.95;41.88;;;4.10;99.90;;;;;;5033878;28;20025;-65
2024/01/23 07:44:43;;;;;;;54.20;41.35;;;4.20;99.90;;;;;;5033441;28;20025;-67
2024/01/23 07:47:09;;;;;;;52.58;41.33;;;4.30;99.90;;;;;;5031759;28;20503;-65
2024/01/23 07:49:35;;;;;;;54.42;40.15;;;4.30;99.90;;;;;;5033302;28;20052;-63
2024/01/23 07:52:01;;;;;;;55.00;41.63;;;4.40;99.90;;;;;;5033435;28;20018;-65
2024/01/23 07:54:26;;;;;;;52.15;39.53;;;4.40;99.90;;;;;;5033816;28;20040;-63
2024/01/23 07:56:52;;;;;;;48.33;36.10;;;4.40;99.90;;;;;;5032209;28;20025;-65
2024/01/23 07:59:18;;;;;;;53.30;41.97;;;4.40;99.90;;;;;;5033616;28;20055;-67
2024/01/23 08:01:44;;;;;;;55.17;39.92;;;4.40;99.90;;;;;;5031453;28;20022;-62
2024/01/23 08:04:12;;;;;;;54.47;39.78;;;4.50;99.90;;;;;;5032421;28;20482;-67
2024/01/23 08:06:39;;;;;;;68.22;48.95;;;4.50;99.90;;;;;;5032099;28;20052;-62
2024/01/23 08:09:05;;;;;;;52.22;39.78;;;4.50;99.90;;;;;;5033380;28;20033;-67
2024/01/23 08:11:31;;;;;;;46.20;37.22;;;4.40;99.90;;;;;;5033526;28;20021;-65
2024/01/23 08:13:57;;;;;;;67.05;51.55;;;4.40;99.90;;;;;;5032183;28;20025;-66
2024/01/23 08:16:25;;;;;;;50.45;41.33;;;4.40;99.90;;;;;;5032735;28;20056;-62
2024/01/23 08:18:51;;;;;;;59.20;44.45;;;4.40;99.90;;;;;;5032420;28;20053;-63
2024/01/23 08:21:17;;;;;;;52.28;40.05;;;4.40;99.90;;;;;;5047395;28;20486;-66
2024/01/23 08:23:43;;;;;;;45.40;37.15;;;4.50;99.90;;;;;;5052993;28;20035;-64
2024/01/23 08:26:09;;;;;;;55.47;42.40;;;4.60;99.90;;;;;;5053069;28;20471;-68
2024/01/23 08:28:35;;;;;;;58.20;43.10;;;4.60;99.90;;;;;;5051732;28;20074;-69
2024/01/23 08:31:03;;;;;;;93.28;64.75;;;4.70;99.90;;;;;;5051289;28;20028;-70
2024/01/23 08:33:30;;;;;;;94.38;68.03;;;4.80;99.90;;;;;;5051429;28;20395;-72
2024/01/23 08:35:56;;;;;;;75.55;56.50;;;4.80;99.90;;;;;;5051675;28;20058;-66
2024/01/23 08:38:22;;;;;;;79.57;58.35;;;4.70;99.90;;;;;;5050779;28;20555;-66
2024/01/23 08:40:47;;;;;;;68.28;51.90;;;4.70;99.90;;;;;;5051051;28;20108;-64
2024/01/23 08:43:13;;;;;;;58.00;46.88;;;4.80;99.90;;;;;;5051701;28;20471;-64
2024/01/23 08:45:39;;;;;;;49.15;41.33;;;4.80;99.90;;;;;;5051498;28;20021;-67
2024/01/23 08:48:05;;;;;;;46.30;39.30;;;4.80;99.90;;;;;;5050969;28;20029;-67
2024/01/23 08:50:30;;;;;;;49.30;41.38;;;4.90;99.90;;;;;;5052733;28;20028;-65
2024/01/23 08:52:56;;;;;;;50.20;41.13;;;4.90;99.90;;;;;;5051285;28;20429;-64
2024/01/23 08:55:22;;;;;;;55.42;44.78;;;5.00;99.90;;;;;;5052742;28;20051;-65
2024/01/23 08:57:47;;;;;;;46.92;39.88;;;5.10;99.90;;;;;;5051498;28;20029;-66
2024/01/23 09:00:13;;;;;;;42.13;35.10;;;5.10;99.90;;;;;;5053458;28;20021;-61
2024/01/23 09:02:40;;;;;;;42.90;35.17;;;5.20;99.90;;;;;;5052452;28;20108;-67
2024/01/23 09:05:06;;;;;;;41.03;32.75;;;5.20;99.90;;;;;;5054861;28;20041;-69
2024/01/23 09:07:40;;;;;;;45.92;37.00;;;5.30;99.90;;;;;;5055705;28;20032;-68
2024/01/23 09:10:06;;;;;;;40.85;35.33;;;5.10;99.90;;;;;;5056073;28;20021;-68
2024/01/23 09:12:33;;;;;;;34.67;30.92;;;5.10;99.90;;;;;;5054133;28;20026;-67
2024/01/23 09:15:00;;;;;;;34.30;30.52;;;5.10;99.90;;;;;;5041856;28;20040;-67
2024/01/23 09:17:25;;;;;;;75.45;59.58;;;5.10;99.90;;;;;;5039341;28;20029;-68
2024/01/23 09:19:52;;;;;;;41.58;33.78;;;5.10;99.90;;;;;;5038544;28;20090;-68
2024/01/23 09:22:17;;;;;;;39.05;33.63;;;5.10;99.90;;;;;;5044885;28;20028;-65
2024/01/23 09:24:43;;;;;;;76.05;53.25;;;5.20;99.90;;;;;;5055581;28;20017;-65
2024/01/23 09:27:09;;;;;;;48.92;39.38;;;5.30;99.90;;;;;;5056195;28;20502;-66
2024/01/23 09:29:35;;;;;;;48.97;39.75;;;5.30;99.90;;;;;;5055707;28;20479;-68
2024/01/23 09:32:01;;;;;;;75.10;56.83;;;5.40;99.90;;;;;;5053729;28;20063;-68
2024/01/23 09:34:27;;;;;;;71.40;57.83;;;5.50;99.90;;;;;;5053696;28;20511;-67
2024/01/23 09:36:53;;;;;;;73.30;58.90;;;5.60;99.90;;;;;;5055724;28;20036;-69
2024/01/23 09:39:19;;;;;;;129.32;97.47;;;5.60;99.90;;;;;;5056038;28;20025;-67
2024/01/23 09:41:49;;;;;;;71.45;57.90;;;5.60;99.90;;;;;;5049795;28;20052;-69
2024/01/23 09:44:16;;;;;;;72.95;57.05;;;5.60;99.90;;;;;;5047340;28;20075;-70
2024/01/23 09:46:45;;;;;;;74.03;60.88;;;5.70;99.90;;;;;;5039817;28;20079;-66
2024/01/23 09:49:12;;;;;;;114.53;92.43;;;5.80;99.90;;;;;;5054342;28;20025;-64
2024/01/23 09:51:47;;;;;;;88.63;73.85;;;6.00;99.90;;;;;;5055073;28;20032;-64
2024/01/23 09:54:13;;;;;;;90.35;74.75;;;6.10;99.90;;;;;;5049984;28;20052;-68
2024/01/23 09:56:39;;;;;;;88.93;73.65;;;6.20;99.90;;;;;;5035239;28;20498;-63
2024/01/23 09:59:06;;;;;;;98.47;79.90;;;6.30;99.90;;;;;;5030745;28;20112;-63
2024/01/23 10:01:35;;;;;;;94.75;76.43;;;6.30;99.90;;;;;;5031933;28;20021;-62
2024/01/23 10:04:04;;;;;;;95.53;73.53;;;6.20;99.90;;;;;;5032587;28;20103;-65
2024/01/23 10:06:30;;;;;;;76.22;62.92;;;6.10;99.90;;;;;;5035018;28;20021;-65
2024/01/23 10:08:56;;;;;;;80.93;64.72;;;6.00;99.90;;;;;;5035331;28;20017;-65
2024/01/23 10:11:22;;;;;;;76.85;63.85;;;6.10;99.90;;;;;;5032151;28;20100;-67
2024/01/23 10:13:48;;;;;;;63.47;54.33;;;6.10;99.90;;;;;;5032843;28;20033;-65
2024/01/23 10:16:16;;;;;;;67.80;55.03;;;6.20;99.90;;;;;;5053000;28;20499;-67
2024/01/23 10:18:46;;;;;;;63.30;52.22;;;6.20;99.90;;;;;;5052685;28;20556;-64
2024/01/23 10:21:11;;;;;;;64.93;52.67;;;6.30;99.90;;;;;;5053953;28;20025;-61
2024/01/23 10:23:38;;;;;;;61.13;48.92;;;6.30;99.90;;;;;;5054248;28;20021;-65
2024/01/23 10:26:07;;;;;;;57.38;48.88;;;6.40;99.90;;;;;;5054430;28;20035;-64
2024/01/23 10:28:34;;;;;;;60.33;49.15;;;6.40;99.90;;;;;;5054850;28;20025;-64
2024/01/23 10:31:01;;;;;;;47.53;41.30;;;6.50;99.90;;;;;;5053754;28;20040;-66
2024/01/23 10:33:27;;;;;;;48.78;40.42;;;6.40;99.90;;;;;;5052481;28;20344;-63
2024/01/23 10:35:54;;;;;;;47.63;40.58;;;6.50;99.90;;;;;;5052703;28;20025;-66
2024/01/23 10:38:20;;;;;;;41.88;36.17;;;6.60;99.90;;;;;;5052436;28;20028;-65
2024/01/23 10:40:47;;;;;;;45.47;36.78;;;6.70;99.90;;;;;;5052982;28;20386;-62
2024/01/23 10:43:13;;;;;;;47.97;40.60;;;6.80;99.90;;;;;;5048895;28;20029;-66
2024/01/23 10:45:39;;;;;;;48.88;40.28;;;6.80;99.90;;;;;;5034214;28;20387;-62
2024/01/23 10:48:07;;;;;;;50.97;41.75;;;6.70;99.90;;;;;;5044003;28;20055;-62
2024/01/23 10:50:34;;;;;;;42.22;35.55;;;6.80;99.90;;;;;;5049673;28;20433;-64
2024/01/23 10:53:05;;;;;;;44.33;38.88;;;6.70;99.90;;;;;;5054595;28;20071;-62
2024/01/23 10:55:37;;;;;;;50.75;41.90;;;6.80;99.90;;;;;;5054390;28;20025;-63
2024/01/23 10:58:04;;;;;;;48.67;41.63;;;6.90;99.90;;;;;;5050437;28;20056;-63
2024/01/23 11:00:33;;;;;;;57.25;47.85;;;6.80;99.90;;;;;;5053330;28;20074;-64
2024/01/23 11:03:00;;;;;;;53.75;47.00;;;6.80;99.90;;;;;;5054297;28;20017;-65
2024/01/23 11:05:51;;;;;;;53.80;46.38;;;6.80;99.90;;;;;;5053201;28;20568;-63
2024/01/23 11:08:30;;;;;;;50.60;44.13;;;6.70;99.90;;;;;;5053348;28;20021;-62
2024/01/23 11:11:14;;;;;;;46.85;41.78;;;6.50;99.90;;;;;;5051626;28;20295;-62
2024/01/23 11:13:51;;;;;;;40.70;36.05;;;6.30;99.90;;;;;;5051017;28;20020;-63
2024/01/23 11:16:17;;;;;;;42.90;38.10;;;6.30;99.90;;;;;;5051661;28;20087;-67
2024/01/23 11:18:44;;;;;;;38.92;32.90;;;6.40;99.90;;;;;;5052612;28;20017;-65
2024/01/23 11:21:12;;;;;;;36.60;32.50;;;6.50;99.90;;;;;;5051960;28;20025;-63
2024/01/23 11:23:40;;;;;;;36.40;32.45;;;6.60;99.90;;;;;;5052813;28;20097;-64
2024/01/23 11:26:12;;;;;;;42.20;35.05;;;6.70;99.90;;;;;;5053339;28;20120;-65
2024/01/23 11:28:38;;;;;;;35.25;31.45;;;6.80;99.90;;;;;;5054210;28;20524;-66
2024/01/23 11:31:07;;;;;;;32.92;29.25;;;6.80;99.90;;;;;;5053791;28;20028;-64
2024/01/23 11:33:34;;;;;;;42.42;35.47;;;7.00;99.90;;;;;;5053157;28;20025;-65
2024/01/23 11:36:23;;;;;;;34.03;30.33;;;7.20;99.90;;;;;;5050635;28;20390;-63
2024/01/23 11:38:53;;;;;;;32.25;28.73;;;7.20;99.90;;;;;;5052321;28;20032;-62
2024/01/23 11:41:24;;;;;;;39.95;34.80;;;7.30;99.90;;;;;;5052967;28;20028;-64
2024/01/23 11:44:03;;;;;;;44.45;39.05;;;7.40;99.90;;;;;;5051660;28;20028;-62
2024/01/23 11:46:29;;;;;;;36.17;30.98;;;7.30;99.80;;;;;;5051052;28;20375;-64
2024/01/23 11:48:54;;;;;;;32.83;28.73;;;7.40;99.90;;;;;;5050988;28;20454;-61
2024/01/23 11:51:21;;;;;;;31.42;28.02;;;7.60;99.90;;;;;;5051207;28;20044;-67
2024/01/23 11:53:47;;;;;;;31.25;27.80;;;7.70;99.20;;;;;;5051841;28;20017;-64
2024/01/23 11:56:15;;;;;;;30.40;25.92;;;7.80;99.00;;;;;;5051796;28;20485;-65
2024/01/23 11:58:41;;;;;;;30.75;24.83;;;7.80;98.70;;;;;;5052299;28;20056;-65
2024/01/23 12:01:08;;;;;;;33.38;26.80;;;7.90;97.00;;;;;;5053180;28;20048;-63
2024/01/23 12:03:35;;;;;;;26.85;23.88;;;7.90;97.70;;;;;;5053065;28;20118;-64
2024/01/23 12:06:02;;;;;;;24.35;21.38;;;7.90;98.00;;;;;;5053398;28;20029;-66
2024/01/23 12:08:28;;;;;;;24.10;21.25;;;8.10;98.10;;;;;;5052329;28;20474;-64
2024/01/23 12:10:56;;;;;;;25.60;21.98;;;8.40;99.00;;;;;;5051288;28;20428;-63
2024/01/23 12:13:25;;;;;;;30.90;25.25;;;8.70;96.90;;;;;;5051536;28;20508;-65
2024/01/23 12:15:52;;;;;;;36.05;29.05;;;9.00;95.40;;;;;;5052039;28;20068;-64
2024/01/23 12:18:23;;;;;;;30.92;26.75;;;9.00;92.60;;;;;;5052163;28;20471;-62
2024/01/23 12:20:50;;;;;;;35.35;29.08;;;8.90;93.10;;;;;;5052041;28;20463;-63
2024/01/23 12:23:19;;;;;;;29.50;26.25;;;9.20;94.40;;;;;;5051244;28;20490;-64
2024/01/23 12:25:46;;;;;;;29.25;26.05;;;9.20;93.10;;;;;;5051759;28;20035;-65
2024/01/23 12:28:12;;;;;;;25.10;22.40;;;9.20;93.10;;;;;;5053138;28;20100;-62
2024/01/23 12:30:38;;;;;;;23.10;20.63;;;9.30;93.70;;;;;;5053100;28;20096;-63